createdAt,value
2023-04-10T00:00:32.711Z,35.30
2023-04-10T00:02:14.037Z,33.03
2023-04-10T00:03:55.832Z,31.46
2023-04-10T00:05:37.617Z,28.57
2023-04-10T00:07:18.891Z,32.13
2023-04-10T00:09:00.201Z,33.36
2023-04-10T00:10:41.495Z,34.54
2023-04-10T00:12:22.767Z,31.86
2023-04-10T00:14:04.064Z,34.34
2023-04-10T00:15:45.430Z,34.61
2023-04-10T00:17:26.743Z,33.88
2023-04-10T00:19:08.055Z,34.09
2023-04-10T00:20:49.390Z,34.75
2023-04-10T00:22:30.686Z,31.38
2023-04-10T00:24:12.009Z,28.24
2023-04-10T00:25:53.328Z,32.12
2023-04-10T00:27:34.663Z,32.32
2023-04-10T00:29:15.939Z,28.71
2023-04-10T00:30:57.230Z,32.01
2023-04-10T00:32:38.579Z,31.17
2023-04-10T00:34:19.877Z,29.92
2023-04-10T00:36:01.237Z,30.69
2023-04-10T00:37:42.540Z,32.40
2023-04-10T00:39:23.809Z,32.78
2023-04-10T00:41:05.105Z,32.34
2023-04-10T00:42:46.441Z,32.85
2023-04-10T00:44:27.718Z,33.54
2023-04-10T00:46:09.064Z,32.61
2023-04-10T00:47:50.436Z,32.92
2023-04-10T00:49:31.759Z,31.83
2023-04-10T00:51:13.060Z,31.25
2023-04-10T00:52:54.402Z,32.18
2023-04-10T00:54:35.717Z,31.46
2023-04-10T00:56:17.014Z,32.22
2023-04-10T00:57:58.293Z,34.93
2023-04-10T00:59:39.589Z,30.66
2023-04-10T01:01:20.952Z,29.41
2023-04-10T01:03:02.417Z,31.68
2023-04-10T01:04:43.850Z,31.68
2023-04-10T01:06:25.187Z,31.42
2023-04-10T01:08:06.518Z,30.74
2023-04-10T01:09:47.832Z,32.73
2023-04-10T01:11:29.136Z,30.80
2023-04-10T01:13:10.444Z,31.90
2023-04-10T01:14:51.760Z,33.11
2023-04-10T01:16:33.089Z,30.60
2023-04-10T01:18:14.443Z,33.34
2023-04-10T01:19:55.762Z,32.89
2023-04-10T01:21:37.144Z,29.65
2023-04-10T01:23:18.465Z,32.76
2023-04-10T01:24:59.802Z,33.25
2023-04-10T01:26:41.162Z,31.58
2023-04-10T01:28:22.484Z,30.31
2023-04-10T01:30:03.788Z,33.42
2023-04-10T01:31:45.141Z,29.81
2023-04-10T01:33:26.497Z,33.69
2023-04-10T01:35:07.844Z,30.36
2023-04-10T01:36:49.121Z,29.48
2023-04-10T01:38:30.493Z,28.91
2023-04-10T01:40:11.809Z,27.52
2023-04-10T01:41:53.063Z,28.43
2023-04-10T01:43:34.400Z,26.13
2023-04-10T01:45:15.733Z,33.02
2023-04-10T01:46:57.033Z,31.34
2023-04-10T01:48:38.344Z,31.09
2023-04-10T01:50:19.668Z,32.83
2023-04-10T01:52:00.958Z,32.43
2023-04-10T01:53:42.272Z,32.84
2023-04-10T01:55:23.604Z,33.21
2023-04-10T01:57:04.992Z,33.07
2023-04-10T01:58:46.297Z,30.98
2023-04-10T02:00:27.683Z,31.67
2023-04-10T02:02:09.076Z,31.75
2023-04-10T02:03:50.509Z,33.22
2023-04-10T02:05:31.881Z,29.27
2023-04-10T02:07:13.190Z,32.85
2023-04-10T02:08:54.516Z,31.31
2023-04-10T02:10:35.845Z,32.03
2023-04-10T02:12:17.194Z,32.45
2023-04-10T02:13:58.539Z,31.97
2023-04-10T02:15:39.864Z,31.92
2023-04-10T02:17:21.201Z,32.50
2023-04-10T02:19:02.557Z,32.87
2023-04-10T02:20:43.868Z,33.14
2023-04-10T02:22:25.189Z,33.45
2023-04-10T02:24:06.489Z,34.31
2023-04-10T02:25:47.861Z,33.49
2023-04-10T02:27:29.188Z,32.37
2023-04-10T02:29:10.499Z,31.14
2023-04-10T02:30:51.865Z,30.25
2023-04-10T02:32:33.248Z,27.99
2023-04-10T02:34:14.580Z,32.04
2023-04-10T02:35:55.922Z,32.43
2023-04-10T02:37:37.276Z,32.16
2023-04-10T02:39:18.585Z,32.55
2023-04-10T02:40:59.901Z,32.39
2023-04-10T02:42:41.251Z,32.66
2023-04-10T02:44:22.593Z,33.13
2023-04-10T02:46:03.903Z,31.59
2023-04-10T02:47:45.342Z,30.43
2023-04-10T02:49:26.699Z,29.36
2023-04-10T02:51:08.024Z,28.43
2023-04-10T02:52:49.324Z,25.59
2023-04-10T02:54:30.680Z,24.76
2023-04-10T02:56:12.115Z,26.97
2023-04-10T02:57:53.433Z,28.68
2023-04-10T02:59:34.768Z,25.84
2023-04-10T03:01:16.114Z,30.95
2023-04-10T03:02:57.693Z,30.85
2023-04-10T03:04:39.405Z,29.92
2023-04-10T03:06:20.808Z,29.92
2023-04-10T03:08:02.171Z,28.14
2023-04-10T03:09:43.507Z,25.44
2023-04-10T03:11:25.121Z,25.56
2023-04-10T03:13:06.451Z,28.20
2023-04-10T03:14:47.722Z,28.41
2023-04-10T03:16:29.078Z,29.40
2023-04-10T03:18:10.501Z,30.59
2023-04-10T03:19:51.833Z,30.54
2023-04-10T03:21:33.223Z,30.16
2023-04-10T03:23:14.492Z,30.36
2023-04-10T03:24:55.788Z,31.20
2023-04-10T03:26:37.109Z,28.23
2023-04-10T03:28:18.396Z,32.60
2023-04-10T03:29:59.709Z,32.11
2023-04-10T03:31:41.116Z,32.46
2023-04-10T03:33:22.531Z,32.53
2023-04-10T03:35:03.930Z,33.25
2023-04-10T03:36:45.290Z,32.97
2023-04-10T03:38:26.584Z,32.93
2023-04-10T03:40:07.923Z,33.86
2023-04-10T03:41:49.242Z,33.15
2023-04-10T03:43:30.573Z,33.72
2023-04-10T03:45:11.904Z,31.12
2023-04-10T03:46:53.228Z,31.45
2023-04-10T03:48:34.594Z,31.84
2023-04-10T03:50:15.889Z,30.39
2023-04-10T03:51:57.170Z,26.38
2023-04-10T03:53:38.492Z,30.31
2023-04-10T03:55:19.860Z,33.70
2023-04-10T03:57:01.162Z,33.16
2023-04-10T03:58:42.502Z,34.80
2023-04-10T04:00:23.926Z,34.10
2023-04-10T04:02:05.335Z,32.50
2023-04-10T04:03:47.308Z,32.59
2023-04-10T04:05:28.722Z,33.44
2023-04-10T04:07:10.056Z,31.45
2023-04-10T04:08:51.380Z,35.49
2023-04-10T04:10:32.754Z,33.52
2023-04-10T04:12:14.067Z,32.89
2023-04-10T04:13:55.673Z,33.44
2023-04-10T04:15:37.174Z,32.17
2023-04-10T04:17:18.512Z,31.65
2023-04-10T04:18:59.837Z,32.87
2023-04-10T04:20:41.140Z,33.21
2023-04-10T04:22:22.458Z,31.08
2023-04-10T04:24:03.793Z,33.77
2023-04-10T04:25:45.070Z,30.75
2023-04-10T04:27:26.396Z,30.88
2023-04-10T04:29:07.685Z,31.28
2023-04-10T04:30:48.983Z,27.02
2023-04-10T04:32:30.264Z,27.17
2023-04-10T04:34:11.574Z,27.27
2023-04-10T04:35:52.911Z,32.52
2023-04-10T04:37:34.209Z,29.75
2023-04-10T04:39:15.542Z,32.40
2023-04-10T04:40:56.865Z,30.19
2023-04-10T04:42:38.167Z,28.38
2023-04-10T04:44:19.454Z,30.61
2023-04-10T04:46:00.752Z,33.17
2023-04-10T04:47:42.169Z,30.78
2023-04-10T04:49:23.480Z,29.52
2023-04-10T04:51:04.780Z,29.85
2023-04-10T04:52:46.096Z,31.51
2023-04-10T04:54:27.409Z,29.78
2023-04-10T04:56:08.768Z,31.13
2023-04-10T04:57:50.044Z,32.22
2023-04-10T04:59:31.399Z,31.46
2023-04-10T05:01:12.818Z,33.01
2023-04-10T05:02:54.373Z,30.90
2023-04-10T05:04:35.759Z,32.33
2023-04-10T05:06:17.060Z,28.10
2023-04-10T05:07:58.376Z,29.73
2023-04-10T05:09:39.652Z,29.72
2023-04-10T05:11:20.925Z,31.51
2023-04-10T05:13:02.239Z,31.75
2023-04-10T05:14:43.590Z,31.48
2023-04-10T05:16:24.879Z,29.59
2023-04-10T05:18:06.331Z,31.80
2023-04-10T05:19:47.678Z,29.40
2023-04-10T05:21:28.944Z,31.26
2023-04-10T05:23:10.236Z,31.44
2023-04-10T05:24:51.537Z,29.40
2023-04-10T05:26:32.836Z,29.64
2023-04-10T05:28:14.138Z,26.42
2023-04-10T05:29:55.424Z,30.03
2023-04-10T05:31:36.739Z,31.00
2023-04-10T05:33:18.080Z,32.23
2023-04-10T05:34:59.603Z,30.47
2023-04-10T05:36:41.329Z,28.98
2023-04-10T05:38:22.856Z,30.43
2023-04-10T05:40:04.193Z,29.88
2023-04-10T05:41:45.491Z,29.39
2023-04-10T05:43:26.802Z,29.46
2023-04-10T05:45:08.471Z,27.12
2023-04-10T05:46:50.002Z,30.82
2023-04-10T05:48:31.385Z,29.37
2023-04-10T05:50:12.685Z,29.79
2023-04-10T05:51:53.995Z,31.45
2023-04-10T05:53:35.292Z,26.90
2023-04-10T05:55:16.597Z,26.54
2023-04-10T05:56:57.899Z,30.59
2023-04-10T05:58:39.218Z,29.50
2023-04-10T06:00:20.494Z,27.48
2023-04-10T06:02:02.098Z,30.01
2023-04-10T06:03:43.687Z,30.69
2023-04-10T06:05:25.166Z,24.35
2023-04-10T06:07:06.587Z,28.40
2023-04-10T06:08:47.874Z,26.10
2023-04-10T06:10:29.207Z,26.71
2023-04-10T06:12:10.528Z,24.82
2023-04-10T06:13:51.814Z,22.92
2023-04-10T06:15:33.109Z,22.57
2023-04-10T06:17:14.456Z,21.86
2023-04-10T06:18:55.991Z,26.39
2023-04-10T06:20:37.416Z,23.11
2023-04-10T06:22:18.729Z,21.58
2023-04-10T06:24:00.022Z,21.74
2023-04-10T06:25:41.426Z,26.22
2023-04-10T06:27:22.799Z,23.96
2023-04-10T06:29:04.101Z,22.22
2023-04-10T06:30:45.510Z,22.54
2023-04-10T06:32:26.813Z,23.15
2023-04-10T06:34:08.208Z,22.34
2023-04-10T06:35:49.519Z,22.41
2023-04-10T06:37:30.870Z,24.00
2023-04-10T06:39:12.142Z,24.43
2023-04-10T06:40:53.436Z,21.82
2023-04-10T06:42:34.740Z,21.57
2023-04-10T06:44:16.017Z,24.15
2023-04-10T06:45:57.291Z,26.32
2023-04-10T06:47:38.716Z,24.03
2023-04-10T06:49:20.045Z,25.56
2023-04-10T06:51:01.357Z,26.50
2023-04-10T06:52:42.673Z,26.84
2023-04-10T06:54:23.963Z,27.37
2023-04-10T06:56:05.430Z,27.46
2023-04-10T06:57:46.753Z,26.63
2023-04-10T06:59:28.094Z,25.49
2023-04-10T07:01:09.509Z,25.76
2023-04-10T07:02:50.885Z,22.82
2023-04-10T07:04:32.240Z,24.96
2023-04-10T07:06:13.552Z,24.66
2023-04-10T07:07:54.870Z,25.16
2023-04-10T07:09:36.177Z,25.70
2023-04-10T07:11:17.515Z,26.27
2023-04-10T07:12:59.133Z,22.82
2023-04-10T07:14:40.461Z,26.07
2023-04-10T07:16:21.771Z,24.44
2023-04-10T07:18:03.104Z,23.89
2023-04-10T07:19:44.438Z,23.78
2023-04-10T07:21:25.710Z,25.92
2023-04-10T07:23:07.006Z,24.45
2023-04-10T07:24:48.370Z,22.14
2023-04-10T07:26:29.671Z,23.21
2023-04-10T07:28:10.987Z,21.92
2023-04-10T07:29:52.329Z,21.82
2023-04-10T07:31:33.672Z,22.23
2023-04-10T07:33:15.188Z,20.45
2023-04-10T07:34:56.592Z,20.42
2023-04-10T07:36:37.900Z,20.02
2023-04-10T07:38:19.199Z,20.37
2023-04-10T07:40:00.502Z,20.62
2023-04-10T07:41:41.786Z,20.31
2023-04-10T07:43:23.087Z,19.71
2023-04-10T07:45:04.378Z,20.93
2023-04-10T07:46:45.656Z,20.34
2023-04-10T07:48:26.926Z,19.01
2023-04-10T07:50:08.259Z,19.46
2023-04-10T07:51:50.753Z,20.04
2023-04-10T07:53:32.045Z,19.92
2023-04-10T07:55:13.360Z,19.80
2023-04-10T07:56:54.615Z,19.54
2023-04-10T07:58:35.930Z,20.29
2023-04-10T08:00:17.245Z,20.39
2023-04-10T08:01:58.629Z,20.65
2023-04-10T08:03:40.117Z,21.00
2023-04-10T08:05:21.503Z,18.84
2023-04-10T08:07:02.828Z,19.39
2023-04-10T08:08:44.152Z,17.44
2023-04-10T08:10:25.438Z,17.46
2023-04-10T08:12:06.753Z,17.93
2023-04-10T08:13:48.038Z,15.54
2023-04-10T08:15:29.324Z,14.20
2023-04-10T08:17:10.644Z,13.09
2023-04-10T08:18:52.040Z,13.75
2023-04-10T08:20:33.418Z,13.11
2023-04-10T08:22:14.733Z,13.39
2023-04-10T08:23:56.047Z,12.70
2023-04-10T08:25:37.327Z,12.78
2023-04-10T08:27:18.625Z,13.65
2023-04-10T08:28:59.957Z,12.20
2023-04-10T08:30:41.433Z,12.44
2023-04-10T08:32:22.802Z,11.85
2023-04-10T08:34:04.119Z,12.04
2023-04-10T08:35:45.449Z,12.18
2023-04-10T08:37:26.772Z,11.43
2023-04-10T08:39:08.036Z,10.94
2023-04-10T08:40:49.331Z,11.26
2023-04-10T08:42:30.615Z,11.21
2023-04-10T08:44:11.924Z,11.00
2023-04-10T08:45:53.288Z,9.91
2023-04-10T08:47:34.633Z,10.93
2023-04-10T08:49:15.949Z,12.91
2023-04-10T08:50:57.224Z,11.84
2023-04-10T08:52:38.528Z,11.26
2023-04-10T08:54:19.807Z,11.40
2023-04-10T08:56:01.156Z,11.36
2023-04-10T08:57:45.185Z,11.70
2023-04-10T08:59:29.322Z,11.79
2023-04-10T09:01:10.744Z,12.28
2023-04-10T09:02:52.137Z,12.13
2023-04-10T09:04:33.659Z,12.00
2023-04-10T09:06:15.059Z,13.95
2023-04-10T09:07:56.475Z,11.77
2023-04-10T09:09:37.932Z,11.39
2023-04-10T09:11:19.210Z,10.80
2023-04-10T09:13:00.511Z,10.98
2023-04-10T09:14:41.814Z,10.88
2023-04-10T09:16:23.143Z,11.38
2023-04-10T09:18:04.467Z,11.48
2023-04-10T09:19:45.811Z,10.47
2023-04-10T09:21:27.119Z,10.79
2023-04-10T09:23:08.433Z,10.45
2023-04-10T09:24:49.713Z,10.33
2023-04-10T09:26:31.108Z,11.18
2023-04-10T09:28:12.425Z,10.23
2023-04-10T09:29:53.692Z,10.11
2023-04-10T09:31:35.047Z,10.98
2023-04-10T09:33:16.405Z,10.78
2023-04-10T09:34:57.742Z,11.34
2023-04-10T09:36:39.048Z,11.34
2023-04-10T09:38:20.439Z,11.24
2023-04-10T09:40:01.858Z,11.86
2023-04-10T09:41:43.169Z,11.31
2023-04-10T09:43:24.501Z,9.96
2023-04-10T09:45:05.821Z,11.13
2023-04-10T09:46:47.153Z,11.18
2023-04-10T09:48:28.445Z,10.13
2023-04-10T09:50:09.771Z,9.58
2023-04-10T09:51:51.075Z,12.18
2023-04-10T09:53:32.381Z,11.20
2023-04-10T09:55:13.719Z,11.06
2023-04-10T09:56:55.008Z,11.16
2023-04-10T09:58:36.280Z,10.75
2023-04-10T10:00:17.655Z,11.04
2023-04-10T10:01:59.084Z,10.67
2023-04-10T10:03:40.421Z,11.62
2023-04-10T10:05:21.749Z,12.21
2023-04-10T10:07:03.010Z,11.67
2023-04-10T10:08:44.284Z,10.62
2023-04-10T10:10:25.613Z,11.11
2023-04-10T10:12:06.898Z,10.85
2023-04-10T10:13:48.212Z,10.70
2023-04-10T10:15:29.499Z,11.17
2023-04-10T10:17:10.772Z,10.14
2023-04-10T10:18:52.250Z,11.12
2023-04-10T10:20:35.334Z,10.17
2023-04-10T10:22:17.458Z,10.04
2023-04-10T10:23:58.803Z,10.52
2023-04-10T10:25:40.092Z,10.01
2023-04-10T10:27:21.371Z,11.01
2023-04-10T10:29:02.711Z,11.43
2023-04-10T10:30:44.024Z,11.26
2023-04-10T10:32:25.366Z,11.11
2023-04-10T10:34:06.666Z,11.05
2023-04-10T10:35:47.935Z,12.38
2023-04-10T10:37:29.255Z,11.40
2023-04-10T10:39:10.543Z,11.42
2023-04-10T10:40:51.843Z,12.90
2023-04-10T10:42:33.152Z,12.09
2023-04-10T10:44:14.414Z,11.46
2023-04-10T10:45:55.809Z,11.76
2023-04-10T10:47:37.171Z,11.78
2023-04-10T10:49:18.493Z,12.28
2023-04-10T10:50:59.807Z,12.36
2023-04-10T10:52:41.096Z,13.01
2023-04-10T10:54:22.369Z,12.16
2023-04-10T10:56:03.618Z,12.05
2023-04-10T10:57:44.891Z,12.00
2023-04-10T10:59:26.223Z,12.38
2023-04-10T11:01:09.990Z,12.42
2023-04-10T11:02:52.070Z,12.63
2023-04-10T11:04:33.474Z,13.34
2023-04-10T11:06:14.776Z,12.88
2023-04-10T11:07:56.217Z,13.64
2023-04-10T11:09:37.554Z,12.40
2023-04-10T11:11:18.820Z,12.98
2023-04-10T11:13:00.204Z,12.96
2023-04-10T11:14:41.502Z,12.49
2023-04-10T11:16:22.827Z,12.00
2023-04-10T11:18:04.171Z,12.73
2023-04-10T11:19:45.459Z,12.44
2023-04-10T11:21:26.749Z,13.08
2023-04-10T11:23:08.024Z,12.99
2023-04-10T11:24:49.320Z,14.02
2023-04-10T11:26:30.594Z,13.35
2023-04-10T11:28:11.869Z,14.19
2023-04-10T11:29:53.193Z,13.99
2023-04-10T11:31:34.546Z,13.88
2023-04-10T11:33:15.823Z,13.89
2023-04-10T11:34:57.088Z,13.68
2023-04-10T11:36:38.383Z,14.06
2023-04-10T11:38:19.695Z,12.71
2023-04-10T11:40:00.968Z,13.14
2023-04-10T11:41:42.259Z,14.09
2023-04-10T11:43:23.566Z,12.77
2023-04-10T11:45:04.840Z,12.86
2023-04-10T11:46:46.130Z,12.83
2023-04-10T11:48:27.461Z,12.79
2023-04-10T11:50:08.748Z,12.52
2023-04-10T11:51:50.067Z,13.53
2023-04-10T11:53:31.373Z,13.29
2023-04-10T11:55:12.654Z,12.44
2023-04-10T11:56:53.960Z,11.82
2023-04-10T11:58:35.296Z,12.25
2023-04-10T12:00:16.585Z,12.32
2023-04-10T12:01:57.966Z,12.90
2023-04-10T12:03:39.551Z,12.54
2023-04-10T12:05:21.072Z,12.84
2023-04-10T12:07:02.396Z,12.85
2023-04-10T12:08:43.700Z,12.85
2023-04-10T12:10:24.988Z,15.20
2023-04-10T12:12:06.320Z,14.40
2023-04-10T12:13:47.600Z,13.62
2023-04-10T12:15:28.967Z,14.64
2023-04-10T12:17:10.371Z,14.35
2023-04-10T12:18:51.774Z,14.97
2023-04-10T12:20:33.072Z,15.72
2023-04-10T12:22:14.400Z,14.78
2023-04-10T12:23:55.683Z,15.25
2023-04-10T12:25:37.089Z,15.64
2023-04-10T12:27:18.392Z,15.19
2023-04-10T12:28:59.687Z,15.04
2023-04-10T12:30:40.996Z,15.13
2023-04-10T12:32:22.362Z,15.73
2023-04-10T12:34:03.692Z,15.62
2023-04-10T12:35:45.110Z,15.95
2023-04-10T12:37:26.436Z,16.17
2023-04-10T12:39:07.723Z,15.34
2023-04-10T12:40:49.030Z,15.77
2023-04-10T12:42:30.421Z,16.12
2023-04-10T12:44:11.695Z,16.23
2023-04-10T12:45:53.007Z,15.84
2023-04-10T12:47:34.315Z,16.15
2023-04-10T12:49:15.613Z,17.03
2023-04-10T12:50:56.935Z,16.70
2023-04-10T12:52:38.257Z,16.10
2023-04-10T12:54:19.544Z,16.23
2023-04-10T12:56:00.870Z,16.40
2023-04-10T12:57:42.164Z,16.83
2023-04-10T12:59:23.712Z,16.89
2023-04-10T13:01:05.561Z,16.04
2023-04-10T13:02:47.020Z,15.22
2023-04-10T13:04:28.702Z,15.38
2023-04-10T13:06:10.125Z,15.65
2023-04-10T13:07:51.408Z,16.33
2023-04-10T13:09:32.742Z,16.82
2023-04-10T13:11:14.058Z,15.76
2023-04-10T13:12:55.341Z,15.87
2023-04-10T13:14:36.676Z,15.74
2023-04-10T13:16:18.021Z,14.99
2023-04-10T13:17:59.351Z,15.77
2023-04-10T13:19:40.821Z,15.75
2023-04-10T13:21:22.121Z,15.96
2023-04-10T13:23:03.396Z,15.38
2023-04-10T13:24:44.705Z,15.93
2023-04-10T13:26:26.037Z,15.25
2023-04-10T13:28:07.337Z,15.33
2023-04-10T13:29:48.688Z,15.52
2023-04-10T13:31:30.107Z,16.02
2023-04-10T13:33:11.514Z,15.48
2023-04-10T13:34:52.859Z,15.54
2023-04-10T13:36:34.270Z,15.47
2023-04-10T13:38:15.641Z,16.42
2023-04-10T13:39:56.969Z,16.14
2023-04-10T13:41:38.261Z,15.99
2023-04-10T13:43:19.563Z,16.13
2023-04-10T13:45:00.858Z,16.39
2023-04-10T13:46:42.172Z,15.82
2023-04-10T13:48:29.991Z,15.87
2023-04-10T13:50:19.220Z,16.00
2023-04-10T13:52:00.511Z,15.67
2023-04-10T13:53:41.836Z,15.82
2023-04-10T13:55:23.141Z,15.78
2023-04-10T13:57:04.399Z,15.39
2023-04-10T13:58:45.688Z,15.70
2023-04-10T14:00:26.989Z,17.49
2023-04-10T14:02:08.340Z,16.03
2023-04-10T14:03:49.800Z,16.59
2023-04-10T14:05:31.194Z,16.46
2023-04-10T14:07:12.482Z,15.88
2023-04-10T14:08:54.094Z,15.56
2023-04-10T14:10:35.573Z,16.05
2023-04-10T14:12:16.879Z,17.11
2023-04-10T14:13:58.170Z,16.49
2023-04-10T14:15:39.452Z,16.79
2023-04-10T14:17:20.734Z,16.21
2023-04-10T14:19:02.023Z,16.48
2023-04-10T14:20:43.328Z,18.09
2023-04-10T14:22:24.605Z,18.13
2023-04-10T14:24:05.931Z,18.23
2023-04-10T14:25:47.231Z,18.90
2023-04-10T14:27:28.531Z,18.74
2023-04-10T14:29:09.822Z,17.94
2023-04-10T14:30:51.158Z,18.34
2023-04-10T14:32:32.523Z,18.75
2023-04-10T14:34:13.870Z,19.01
2023-04-10T14:35:55.218Z,18.37
2023-04-10T14:37:36.541Z,19.25
2023-04-10T14:39:17.810Z,19.94
2023-04-10T14:40:59.158Z,19.63
2023-04-10T14:42:40.526Z,19.42
2023-04-10T14:44:21.833Z,20.54
2023-04-10T14:46:03.188Z,19.74
2023-04-10T14:47:44.599Z,19.17
2023-04-10T14:49:26.037Z,19.89
2023-04-10T14:51:07.366Z,19.55
2023-04-10T14:52:48.673Z,19.98
2023-04-10T14:54:30.000Z,19.32
2023-04-10T14:56:11.395Z,19.29
2023-04-10T14:57:52.785Z,19.67
2023-04-10T14:59:34.091Z,19.58
2023-04-10T15:01:15.381Z,19.72
2023-04-10T15:02:56.815Z,20.42
2023-04-10T15:04:38.794Z,19.69
2023-04-10T15:06:20.398Z,19.67
2023-04-10T15:08:01.686Z,19.56
2023-04-10T15:09:42.959Z,20.31
2023-04-10T15:11:24.255Z,20.42
2023-04-10T15:13:05.520Z,20.41
2023-04-10T15:14:46.781Z,20.11
2023-04-10T15:16:28.261Z,20.86
2023-04-10T15:18:09.675Z,20.46
2023-04-10T15:19:50.998Z,21.24
2023-04-10T15:21:32.339Z,20.97
2023-04-10T15:23:13.630Z,21.99
2023-04-10T15:24:54.919Z,21.18
2023-04-10T15:26:36.247Z,21.45
2023-04-10T15:28:17.507Z,22.05
2023-04-10T15:29:58.781Z,22.20
2023-04-10T15:31:40.199Z,21.75
2023-04-10T15:33:21.476Z,22.22
2023-04-10T15:35:02.770Z,22.16
2023-04-10T15:36:44.075Z,22.14
2023-04-10T15:38:25.361Z,22.22
2023-04-10T15:40:06.692Z,22.33
2023-04-10T15:41:47.989Z,23.14
2023-04-10T15:43:29.257Z,22.52
2023-04-10T15:45:10.688Z,22.57
2023-04-10T15:46:52.021Z,22.46
2023-04-10T15:48:33.766Z,22.91
2023-04-10T15:50:15.585Z,22.19
2023-04-10T15:51:56.871Z,21.53
2023-04-10T15:53:38.146Z,21.53
2023-04-10T15:55:19.424Z,22.07
2023-04-10T15:57:00.726Z,22.48
2023-04-10T15:58:42.033Z,21.59
2023-04-10T16:00:23.299Z,21.60
2023-04-10T16:02:04.732Z,21.84
2023-04-10T16:03:46.530Z,22.14
2023-04-10T16:05:28.046Z,21.68
2023-04-10T16:07:09.330Z,21.09
2023-04-10T16:08:50.651Z,22.01
2023-04-10T16:10:31.911Z,22.37
2023-04-10T16:12:13.200Z,22.24
2023-04-10T16:13:54.976Z,23.45
2023-04-10T16:15:36.525Z,23.21
2023-04-10T16:17:17.911Z,23.45
2023-04-10T16:19:00.558Z,23.00
2023-04-10T16:20:43.032Z,22.99
2023-04-10T16:22:24.315Z,22.61
2023-04-10T16:24:05.642Z,22.10
2023-04-10T16:25:46.939Z,22.72
2023-04-10T16:27:28.275Z,23.82
2023-04-10T16:29:09.605Z,23.19
2023-04-10T16:30:50.894Z,22.83
2023-04-10T16:32:32.246Z,23.23
2023-04-10T16:34:13.693Z,22.56
2023-04-10T16:35:55.017Z,21.94
2023-04-10T16:37:36.328Z,23.00
2023-04-10T16:39:17.618Z,22.82
2023-04-10T16:40:58.920Z,22.36
2023-04-10T16:42:40.211Z,21.88
2023-04-10T16:44:21.488Z,22.07
2023-04-10T16:46:02.816Z,21.88
2023-04-10T16:47:44.223Z,22.65
2023-04-10T16:49:25.629Z,22.41
2023-04-10T16:51:07.073Z,23.07
2023-04-10T16:52:48.481Z,23.05
2023-04-10T16:54:29.762Z,22.92
2023-04-10T16:56:11.195Z,22.51
2023-04-10T16:57:52.533Z,22.95
2023-04-10T16:59:33.844Z,22.78
2023-04-10T17:01:15.374Z,22.97
2023-04-10T17:02:56.897Z,23.31
2023-04-10T17:04:38.198Z,23.16
2023-04-10T17:06:19.484Z,23.42
2023-04-10T17:08:00.795Z,23.68
2023-04-10T17:09:42.112Z,23.51
2023-04-10T17:11:23.372Z,23.97
2023-04-10T17:13:04.692Z,23.73
2023-04-10T17:14:46.002Z,23.50
2023-04-10T17:16:27.399Z,23.90
2023-04-10T17:18:08.840Z,24.01
2023-04-10T17:19:50.212Z,23.21
2023-04-10T17:21:31.715Z,24.47
2023-04-10T17:23:13.005Z,24.79
2023-04-10T17:24:54.443Z,24.34
2023-04-10T17:26:35.823Z,25.17
2023-04-10T17:28:17.597Z,24.92
2023-04-10T17:29:59.121Z,24.86
2023-04-10T17:31:40.544Z,25.27
2023-04-10T17:33:21.938Z,25.48
2023-04-10T17:35:03.305Z,25.65
2023-04-10T17:36:44.848Z,25.17
2023-04-10T17:38:26.360Z,24.69
2023-04-10T17:40:07.717Z,24.68
2023-04-10T17:41:49.197Z,25.55
2023-04-10T17:43:30.654Z,25.73
2023-04-10T17:45:12.180Z,25.38
2023-04-10T17:46:53.493Z,27.09
2023-04-10T17:48:34.915Z,26.72
2023-04-10T17:50:16.295Z,26.60
2023-04-10T17:51:57.596Z,27.00
2023-04-10T17:53:38.922Z,27.11
2023-04-10T17:55:20.752Z,27.10
2023-04-10T17:57:02.793Z,26.91
2023-04-10T17:58:44.108Z,27.79
2023-04-10T18:00:25.433Z,27.74
2023-04-10T18:02:06.770Z,28.22
2023-04-10T18:03:48.162Z,28.31
2023-04-10T18:05:29.512Z,28.42
2023-04-10T18:07:10.791Z,28.44
2023-04-10T18:08:52.227Z,28.37
2023-04-10T18:10:33.634Z,28.88
2023-04-10T18:12:14.924Z,29.58
2023-04-10T18:13:56.253Z,30.29
2023-04-10T18:15:37.550Z,30.47
2023-04-10T18:17:18.836Z,30.16
2023-04-10T18:19:00.168Z,29.56
2023-04-10T18:20:41.501Z,30.36
2023-04-10T18:22:22.801Z,30.71
2023-04-10T18:24:04.115Z,29.98
2023-04-10T18:25:45.423Z,30.24
2023-04-10T18:27:26.704Z,31.60
2023-04-10T18:29:07.978Z,32.93
2023-04-10T18:30:49.334Z,32.72
2023-04-10T18:32:31.251Z,32.77
2023-04-10T18:34:13.236Z,32.39
2023-04-10T18:35:55.087Z,32.46
2023-04-10T18:37:36.790Z,30.88
2023-04-10T18:39:18.247Z,31.16
2023-04-10T18:40:59.647Z,31.07
2023-04-10T18:42:40.967Z,31.44
2023-04-10T18:44:22.281Z,31.51
2023-04-10T18:46:03.875Z,30.34
2023-04-10T18:47:45.459Z,30.77
2023-04-10T18:49:26.752Z,31.17
2023-04-10T18:51:08.358Z,33.14
2023-04-10T18:52:49.879Z,33.32
2023-04-10T18:54:31.158Z,33.60
2023-04-10T18:56:12.442Z,34.04
2023-04-10T18:57:53.761Z,34.74
2023-04-10T18:59:35.054Z,35.19
2023-04-10T19:01:16.385Z,33.80
2023-04-10T19:02:57.897Z,33.68
2023-04-10T19:04:40.248Z,34.48
2023-04-10T19:06:21.908Z,35.23
2023-04-10T19:08:04.566Z,35.09
2023-04-10T19:09:47.805Z,35.00
2023-04-10T19:11:29.321Z,35.73
2023-04-10T19:13:10.719Z,36.33
2023-04-10T19:14:52.080Z,36.02
2023-04-10T19:18:19.578Z,34.24
2023-04-10T19:20:01.593Z,34.19
2023-04-10T19:21:43.188Z,35.48
2023-04-10T19:23:24.493Z,35.33
2023-04-10T19:25:05.845Z,34.24
2023-04-10T19:26:47.180Z,34.60
2023-04-10T19:28:28.474Z,36.14
2023-04-10T19:30:09.846Z,35.40
2023-04-10T19:31:51.128Z,35.99
2023-04-10T19:33:32.434Z,35.38
2023-04-10T19:35:14.374Z,35.21
2023-04-10T19:36:55.945Z,35.49
2023-04-10T19:38:37.255Z,34.60
2023-04-10T19:40:20.745Z,32.99
2023-04-10T19:42:02.122Z,34.27
2023-04-10T19:43:43.494Z,34.14
2023-04-10T19:45:24.909Z,33.08
2023-04-10T19:47:06.214Z,34.93
2023-04-10T19:48:47.514Z,35.86
2023-04-10T19:50:28.848Z,36.05
2023-04-10T19:52:10.236Z,36.05
2023-04-10T19:53:51.530Z,35.09
2023-04-10T19:55:32.823Z,34.75
2023-04-10T19:57:14.164Z,34.92
2023-04-10T19:58:55.479Z,35.46
2023-04-10T20:00:36.842Z,36.06
2023-04-10T20:02:18.259Z,34.90
2023-04-10T20:03:59.849Z,34.79
2023-04-10T20:05:41.209Z,35.39
2023-04-10T20:07:23.136Z,36.83
2023-04-10T20:09:04.744Z,35.96
2023-04-10T20:10:46.047Z,35.23
2023-04-10T20:12:27.336Z,36.76
2023-04-10T20:14:08.618Z,35.57
2023-04-10T20:15:49.968Z,33.89
2023-04-10T20:17:31.451Z,34.27
2023-04-10T20:19:12.741Z,35.38
2023-04-10T20:20:54.029Z,33.92
2023-04-10T20:24:34.053Z,34.20
2023-04-10T20:26:15.398Z,36.10
2023-04-10T20:27:56.671Z,37.43
2023-04-10T20:29:37.986Z,37.29
2023-04-10T20:31:19.296Z,36.31
2023-04-10T20:33:00.613Z,35.50
2023-04-10T20:34:41.946Z,34.82
2023-04-10T20:36:23.255Z,34.10
2023-04-10T20:38:04.606Z,35.12
2023-04-10T20:39:45.910Z,35.18
2023-04-10T20:41:27.219Z,36.05
2023-04-10T20:43:08.593Z,36.26
2023-04-10T20:44:49.968Z,35.15
2023-04-10T20:46:31.346Z,33.75
2023-04-10T20:48:12.752Z,34.57
2023-04-10T20:49:54.072Z,34.61
2023-04-10T20:51:35.405Z,35.81
2023-04-10T20:53:16.692Z,35.92
2023-04-10T20:54:57.969Z,35.71
2023-04-10T20:56:43.235Z,36.39
2023-04-10T20:58:25.348Z,36.29
2023-04-10T21:00:06.623Z,37.83
2023-04-10T21:01:48.018Z,37.28
2023-04-10T21:03:29.557Z,36.38
2023-04-10T21:05:10.992Z,35.60
2023-04-10T21:06:52.283Z,35.61
2023-04-10T21:08:33.565Z,36.37
2023-04-10T21:10:14.910Z,36.18
2023-04-10T21:11:56.220Z,36.74
2023-04-10T21:13:38.590Z,37.26
2023-04-10T21:15:20.058Z,36.42
2023-04-10T21:17:01.475Z,35.29
2023-04-10T21:18:42.864Z,35.19
2023-04-10T21:20:24.139Z,35.40
2023-04-10T21:22:05.485Z,34.50
2023-04-10T21:23:46.862Z,36.09
2023-04-10T21:25:28.138Z,35.39
2023-04-10T21:27:09.448Z,35.87
2023-04-10T21:28:50.718Z,34.92
2023-04-10T21:30:32.008Z,34.31
2023-04-10T21:32:13.433Z,34.82
2023-04-10T21:33:54.873Z,34.37
2023-04-10T21:35:36.172Z,34.99
2023-04-10T21:37:17.488Z,34.64
2023-04-10T21:38:58.821Z,34.09
2023-04-10T21:40:40.093Z,34.69
2023-04-10T21:42:21.386Z,35.01
2023-04-10T21:44:02.675Z,34.79
2023-04-10T21:45:44.002Z,35.57
2023-04-10T21:47:25.339Z,35.72
2023-04-10T21:49:06.630Z,36.16